UKV5176 EFHK-ULLI
Flight info
| Callsign | UKV5176 |
|---|---|
| Flight time | 0h 44m |
| Altitude | 21000 |
| Route | ARVEP T82 RATMU DCT OLEMA/K0715F210 DCT AKARU |
| Aircraft | E190/M-SDE3GILORVW/S |
Departure
| Time | 2026-04-24 12:30 |
|---|---|
| Airport | Helsinki Vantaa Airport (EFHK) |
Arrival
| Time | 2026-04-24 13:14 |
|---|---|
| Airport | Pulkovo Airport (ULLI) |
| Time | Latitude | Longitude | Altitude | Speed | Heading |
|---|---|---|---|---|---|
| 2026-04-24 12:11 | 60.31558 | 24.97323 | 176 ft | 0 kts | 244° |
| 2026-04-24 12:19 | 60.31569 | 24.97365 | 176 ft | 4 kts | 246° |
| 2026-04-24 12:20 | 60.31576 | 24.97415 | 176 ft | 4 kts | 277° |
| 2026-04-24 12:20 | 60.31566 | 24.97459 | 176 ft | 4 kts | 328° |
| 2026-04-24 12:20 | 60.31558 | 24.97469 | 176 ft | 0 kts | 333° |
| 2026-04-24 12:22 | 60.31563 | 24.97463 | 176 ft | 3 kts | 332° |
| 2026-04-24 12:22 | 60.31598 | 24.97428 | 176 ft | 9 kts | 332° |
| 2026-04-24 12:23 | 60.31669 | 24.97352 | 175 ft | 15 kts | 332° |
| 2026-04-24 12:23 | 60.31765 | 24.97255 | 174 ft | 16 kts | 333° |
| 2026-04-24 12:23 | 60.31868 | 24.97151 | 173 ft | 17 kts | 333° |
| 2026-04-24 12:23 | 60.31978 | 24.97034 | 171 ft | 18 kts | 332° |
| 2026-04-24 12:24 | 60.32095 | 24.96906 | 169 ft | 20 kts | 331° |
| 2026-04-24 12:24 | 60.32188 | 24.96769 | 167 ft | 13 kts | 286° |
| 2026-04-24 12:24 | 60.32140 | 24.96623 | 166 ft | 14 kts | 227° |
| 2026-04-24 12:24 | 60.32069 | 24.96471 | 165 ft | 16 kts | 227° |
| 2026-04-24 12:25 | 60.31989 | 24.96297 | 164 ft | 18 kts | 227° |
| 2026-04-24 12:25 | 60.31914 | 24.96090 | 162 ft | 19 kts | 264° |
| 2026-04-24 12:25 | 60.31997 | 24.95897 | 160 ft | 19 kts | 320° |
| 2026-04-24 12:25 | 60.32093 | 24.95722 | 160 ft | 19 kts | 318° |
| 2026-04-24 12:26 | 60.32193 | 24.95541 | 160 ft | 19 kts | 318° |
| 2026-04-24 12:26 | 60.32288 | 24.95362 | 162 ft | 18 kts | 316° |
| 2026-04-24 12:26 | 60.32390 | 24.95237 | 164 ft | 17 kts | 340° |
| 2026-04-24 12:26 | 60.32497 | 24.95167 | 165 ft | 16 kts | 343° |
| 2026-04-24 12:27 | 60.32598 | 24.95105 | 167 ft | 15 kts | 343° |
| 2026-04-24 12:27 | 60.32692 | 24.95046 | 170 ft | 13 kts | 342° |
| 2026-04-24 12:27 | 60.32778 | 24.94991 | 173 ft | 13 kts | 341° |
| 2026-04-24 12:27 | 60.32872 | 24.94924 | 178 ft | 14 kts | 336° |
| 2026-04-24 12:28 | 60.32954 | 24.94802 | 184 ft | 15 kts | 317° |
| 2026-04-24 12:28 | 60.33024 | 24.94672 | 197 ft | 12 kts | 316° |
| 2026-04-24 12:28 | 60.33050 | 24.94529 | 190 ft | 11 kts | 270° |
| 2026-04-24 12:28 | 60.33050 | 24.94376 | 192 ft | 12 kts | 270° |
| 2026-04-24 12:29 | 60.33023 | 24.94182 | 190 ft | 17 kts | 227° |
| 2026-04-24 12:29 | 60.32900 | 24.93912 | 184 ft | 48 kts | 227° |
| 2026-04-24 12:29 | 60.32490 | 24.93008 | 174 ft | 126 kts | 229° |
| 2026-04-24 12:29 | 60.31742 | 24.91363 | 257 ft | 185 kts | 233° |
| 2026-04-24 12:30 | 60.30820 | 24.89346 | 1118 ft | 202 kts | 231° |
| 2026-04-24 12:30 | 60.29821 | 24.87195 | 2009 ft | 222 kts | 237° |
| 2026-04-24 12:30 | 60.29255 | 24.84157 | 2592 ft | 251 kts | 275° |
| 2026-04-24 12:30 | 60.29855 | 24.80876 | 3657 ft | 248 kts | 308° |
| 2026-04-24 12:31 | 60.30939 | 24.78295 | 4630 ft | 241 kts | 313° |
| 2026-04-24 12:31 | 60.32104 | 24.75868 | 5393 ft | 243 kts | 316° |
| 2026-04-24 12:31 | 60.33142 | 24.73135 | 6065 ft | 247 kts | 304° |
| 2026-04-24 12:31 | 60.33993 | 24.70089 | 6708 ft | 250 kts | 301° |
| 2026-04-24 12:32 | 60.34928 | 24.67141 | 7285 ft | 249 kts | 316° |
| 2026-04-24 12:32 | 60.36383 | 24.65312 | 7870 ft | 249 kts | 343° |
| 2026-04-24 12:32 | 60.38110 | 24.64982 | 8510 ft | 253 kts | 4° |
| 2026-04-24 12:32 | 60.39800 | 24.66104 | 9156 ft | 262 kts | 25° |
| 2026-04-24 12:33 | 60.41341 | 24.68115 | 9849 ft | 265 kts | 29° |
| 2026-04-24 12:33 | 60.42881 | 24.70284 | 10265 ft | 278 kts | 29° |
| 2026-04-24 12:33 | 60.44471 | 24.72636 | 10681 ft | 289 kts | 31° |
| 2026-04-24 12:33 | 60.46057 | 24.75253 | 11222 ft | 301 kts | 39° |
| 2026-04-24 12:34 | 60.47156 | 24.79006 | 11842 ft | 324 kts | 66° |
| 2026-04-24 12:34 | 60.47397 | 24.83662 | 12531 ft | 344 kts | 90° |
| 2026-04-24 12:34 | 60.46917 | 24.88427 | 13227 ft | 354 kts | 99° |
| 2026-04-24 12:34 | 60.46275 | 24.93304 | 13915 ft | 361 kts | 99° |
| 2026-04-24 12:35 | 60.45618 | 24.98260 | 14621 ft | 365 kts | 99° |
| 2026-04-24 12:35 | 60.44954 | 25.03276 | 15337 ft | 370 kts | 99° |
| 2026-04-24 12:35 | 60.44295 | 25.08336 | 16111 ft | 374 kts | 98° |
| 2026-04-24 12:35 | 60.43650 | 25.13477 | 16828 ft | 379 kts | 97° |
| 2026-04-24 12:36 | 60.42982 | 25.18701 | 17546 ft | 385 kts | 98° |
| 2026-04-24 12:36 | 60.42288 | 25.23975 | 18256 ft | 391 kts | 98° |
| 2026-04-24 12:36 | 60.41583 | 25.29246 | 18920 ft | 396 kts | 98° |
| 2026-04-24 12:36 | 60.40847 | 25.34663 | 19564 ft | 400 kts | 98° |
| 2026-04-24 12:37 | 60.40095 | 25.40126 | 20225 ft | 405 kts | 99° |
| 2026-04-24 12:37 | 60.39306 | 25.45648 | 20859 ft | 410 kts | 99° |
| 2026-04-24 12:37 | 60.38494 | 25.51244 | 21115 ft | 424 kts | 100° |
| 2026-04-24 12:37 | 60.37619 | 25.57072 | 21143 ft | 441 kts | 101° |
| 2026-04-24 12:38 | 60.36704 | 25.63056 | 21109 ft | 449 kts | 101° |
| 2026-04-24 12:38 | 60.35772 | 25.69131 | 20622 ft | 452 kts | 101° |
| 2026-04-24 12:38 | 60.34858 | 25.75109 | 20722 ft | 446 kts | 100° |
| 2026-04-24 12:39 | 60.32120 | 25.93067 | 20775 ft | 450 kts | 101° |
| 2026-04-24 12:39 | 60.31195 | 25.99105 | 20775 ft | 450 kts | 101° |
| 2026-04-24 12:39 | 60.30267 | 26.05153 | 20776 ft | 450 kts | 101° |
| 2026-04-24 12:40 | 60.29340 | 26.11176 | 20765 ft | 450 kts | 101° |
| 2026-04-24 12:40 | 60.28411 | 26.17195 | 20773 ft | 450 kts | 101° |
| 2026-04-24 12:40 | 60.27478 | 26.23221 | 20770 ft | 450 kts | 101° |
| 2026-04-24 12:40 | 60.26540 | 26.29255 | 20776 ft | 450 kts | 101° |
| 2026-04-24 12:41 | 60.25601 | 26.35277 | 20771 ft | 450 kts | 101° |
| 2026-04-24 12:41 | 60.24676 | 26.41215 | 20770 ft | 448 kts | 99° |
| 2026-04-24 12:41 | 60.24047 | 26.47275 | 20781 ft | 441 kts | 91° |
| 2026-04-24 12:41 | 60.23619 | 26.53382 | 20764 ft | 439 kts | 89° |
| 2026-04-24 12:42 | 60.23462 | 26.59467 | 20771 ft | 431 kts | 81° |
| 2026-04-24 12:42 | 60.23508 | 26.65489 | 20757 ft | 430 kts | 81° |
| 2026-04-24 12:42 | 60.23531 | 26.71511 | 20765 ft | 431 kts | 81° |
| 2026-04-24 12:42 | 60.23542 | 26.77553 | 20762 ft | 431 kts | 81° |
| 2026-04-24 12:43 | 60.23543 | 26.83586 | 20763 ft | 431 kts | 81° |
| 2026-04-24 12:43 | 60.23538 | 26.89624 | 20758 ft | 432 kts | 82° |
| 2026-04-24 12:43 | 60.23528 | 26.95668 | 20758 ft | 432 kts | 82° |
| 2026-04-24 12:43 | 60.23513 | 27.01715 | 20758 ft | 432 kts | 82° |
| 2026-04-24 12:44 | 60.23494 | 27.07690 | 20751 ft | 432 kts | 82° |
| 2026-04-24 12:44 | 60.23473 | 27.13728 | 20752 ft | 432 kts | 82° |
| 2026-04-24 12:44 | 60.23448 | 27.19778 | 20748 ft | 432 kts | 82° |
| 2026-04-24 12:44 | 60.23419 | 27.25830 | 20747 ft | 432 kts | 82° |
| 2026-04-24 12:45 | 60.23387 | 27.31884 | 20744 ft | 432 kts | 82° |
| 2026-04-24 12:45 | 60.23352 | 27.37930 | 20744 ft | 432 kts | 82° |
| 2026-04-24 12:45 | 60.23316 | 27.43976 | 20746 ft | 432 kts | 82° |
| 2026-04-24 12:45 | 60.23269 | 27.50036 | 20752 ft | 434 kts | 83° |
| 2026-04-24 12:46 | 60.23071 | 27.56126 | 20757 ft | 437 kts | 86° |
| 2026-04-24 12:46 | 60.22803 | 27.62226 | 20749 ft | 437 kts | 86° |
| 2026-04-24 12:46 | 60.22560 | 27.68315 | 20782 ft | 437 kts | 86° |
| 2026-04-24 12:46 | 60.22318 | 27.74412 | 20768 ft | 436 kts | 86° |
| 2026-04-24 12:47 | 60.22083 | 27.80409 | 20737 ft | 435 kts | 85° |
| 2026-04-24 12:47 | 60.21842 | 27.86481 | 20737 ft | 435 kts | 85° |
| 2026-04-24 12:47 | 60.21602 | 27.92561 | 20742 ft | 436 kts | 85° |
| 2026-04-24 12:47 | 60.21361 | 27.98628 | 20742 ft | 436 kts | 85° |
| 2026-04-24 12:48 | 60.21118 | 28.04704 | 20740 ft | 436 kts | 85° |
| 2026-04-24 12:48 | 60.20873 | 28.10781 | 20736 ft | 436 kts | 85° |
| 2026-04-24 12:48 | 60.20625 | 28.16862 | 20735 ft | 436 kts | 85° |
| 2026-04-24 12:48 | 60.20376 | 28.22945 | 20738 ft | 436 kts | 85° |
| 2026-04-24 12:49 | 60.20125 | 28.29006 | 20732 ft | 436 kts | 86° |
| 2026-04-24 12:49 | 60.19869 | 28.35090 | 20738 ft | 436 kts | 86° |
| 2026-04-24 12:49 | 60.19611 | 28.41163 | 20728 ft | 436 kts | 86° |
| 2026-04-24 12:49 | 60.19349 | 28.47237 | 20728 ft | 436 kts | 86° |
| 2026-04-24 12:50 | 60.19084 | 28.53311 | 20710 ft | 436 kts | 85° |
| 2026-04-24 12:50 | 60.18818 | 28.59359 | 20731 ft | 435 kts | 85° |
| 2026-04-24 12:50 | 60.18540 | 28.65419 | 20732 ft | 436 kts | 87° |
| 2026-04-24 12:50 | 60.18061 | 28.71408 | 20727 ft | 442 kts | 92° |
| 2026-04-24 12:51 | 60.17464 | 28.77470 | 20726 ft | 443 kts | 92° |
| 2026-04-24 12:51 | 60.16885 | 28.83542 | 20727 ft | 442 kts | 91° |
| 2026-04-24 12:51 | 60.16335 | 28.89605 | 20725 ft | 441 kts | 91° |
| 2026-04-24 12:51 | 60.15787 | 28.95678 | 20717 ft | 441 kts | 91° |
| 2026-04-24 12:52 | 60.15243 | 29.01739 | 20718 ft | 441 kts | 91° |
| 2026-04-24 12:52 | 60.14698 | 29.07798 | 20716 ft | 441 kts | 91° |
| 2026-04-24 12:52 | 60.14151 | 29.13856 | 20718 ft | 441 kts | 91° |
| 2026-04-24 12:52 | 60.13600 | 29.19923 | 20732 ft | 441 kts | 91° |
| 2026-04-24 12:53 | 60.13047 | 29.25958 | 20708 ft | 436 kts | 91° |
| 2026-04-24 12:53 | 60.12498 | 29.31811 | 20670 ft | 418 kts | 90° |
| 2026-04-24 12:53 | 60.12147 | 29.35571 | 20652 ft | 410 kts | 90° |
| 2026-04-24 12:53 | 60.11632 | 29.41171 | 20719 ft | 406 kts | 90° |
| 2026-04-24 12:54 | 60.11122 | 29.46751 | 20701 ft | 408 kts | 90° |
| 2026-04-24 12:54 | 60.10606 | 29.52334 | 20704 ft | 407 kts | 90° |
| 2026-04-24 12:54 | 60.10085 | 29.57915 | 20700 ft | 407 kts | 90° |
| 2026-04-24 12:54 | 60.09561 | 29.63496 | 20719 ft | 408 kts | 90° |
| 2026-04-24 12:55 | 60.09031 | 29.69095 | 20712 ft | 408 kts | 90° |
| 2026-04-24 12:55 | 60.08501 | 29.74748 | 19791 ft | 418 kts | 91° |
| 2026-04-24 12:55 | 60.07955 | 29.80508 | 18714 ft | 424 kts | 92° |
| 2026-04-24 12:55 | 60.07396 | 29.86333 | 17522 ft | 429 kts | 93° |
| 2026-04-24 12:56 | 60.06830 | 29.92201 | 16171 ft | 423 kts | 94° |
| 2026-04-24 12:56 | 60.06270 | 29.97894 | 14713 ft | 410 kts | 95° |
| 2026-04-24 12:56 | 60.05737 | 30.03345 | 13234 ft | 399 kts | 96° |
| 2026-04-24 12:56 | 60.05123 | 30.08664 | 12425 ft | 375 kts | 103° |
| 2026-04-24 12:57 | 60.04323 | 30.13358 | 12395 ft | 343 kts | 105° |
| 2026-04-24 12:57 | 60.03564 | 30.17763 | 12344 ft | 328 kts | 104° |
| 2026-04-24 12:57 | 60.02841 | 30.22144 | 11530 ft | 336 kts | 104° |
| 2026-04-24 12:57 | 60.02134 | 30.26519 | 11093 ft | 323 kts | 104° |
| 2026-04-24 12:58 | 60.01460 | 30.30698 | 10660 ft | 308 kts | 104° |
| 2026-04-24 12:58 | 60.00813 | 30.34734 | 10307 ft | 305 kts | 104° |
| 2026-04-24 12:58 | 60.00166 | 30.38790 | 9887 ft | 308 kts | 104° |
| 2026-04-24 12:58 | 59.99514 | 30.42860 | 9450 ft | 306 kts | 104° |
| 2026-04-24 12:59 | 59.98866 | 30.46880 | 9059 ft | 302 kts | 104° |
| 2026-04-24 12:59 | 59.98224 | 30.50852 | 8662 ft | 298 kts | 104° |
| 2026-04-24 12:59 | 59.97591 | 30.54782 | 8237 ft | 298 kts | 105° |
| 2026-04-24 12:59 | 59.96965 | 30.58655 | 7899 ft | 296 kts | 105° |
| 2026-04-24 13:00 | 59.96323 | 30.62593 | 7662 ft | 293 kts | 105° |
| 2026-04-24 13:00 | 59.95701 | 30.66378 | 7669 ft | 290 kts | 105° |
| 2026-04-24 13:00 | 59.95073 | 30.70219 | 7663 ft | 289 kts | 105° |
| 2026-04-24 13:00 | 59.94460 | 30.73945 | 7637 ft | 276 kts | 105° |
| 2026-04-24 13:01 | 59.93861 | 30.77568 | 7096 ft | 277 kts | 108° |
| 2026-04-24 13:01 | 59.92943 | 30.80974 | 6527 ft | 271 kts | 124° |
| 2026-04-24 13:01 | 59.91852 | 30.83889 | 6515 ft | 259 kts | 127° |
| 2026-04-24 13:01 | 59.90761 | 30.86742 | 6685 ft | 252 kts | 126° |
| 2026-04-24 13:02 | 59.89778 | 30.89361 | 7818 ft | 221 kts | 126° |
| 2026-04-24 13:02 | 59.88829 | 30.91918 | 7869 ft | 248 kts | 126° |
| 2026-04-24 13:02 | 59.87752 | 30.94825 | 7158 ft | 269 kts | 126° |
| 2026-04-24 13:02 | 59.86617 | 30.97890 | 6508 ft | 281 kts | 126° |
| 2026-04-24 13:03 | 59.85273 | 31.00728 | 6020 ft | 281 kts | 150° |
| 2026-04-24 13:03 | 59.83605 | 31.02259 | 6214 ft | 255 kts | 163° |
| 2026-04-24 13:03 | 59.81973 | 31.03324 | 6777 ft | 248 kts | 165° |
| 2026-04-24 13:03 | 59.80283 | 31.04444 | 6786 ft | 261 kts | 164° |
| 2026-04-24 13:04 | 59.78541 | 31.05655 | 6643 ft | 270 kts | 164° |
| 2026-04-24 13:04 | 59.76742 | 31.06909 | 6187 ft | 276 kts | 165° |
| 2026-04-24 13:04 | 59.74870 | 31.07514 | 5762 ft | 270 kts | 185° |
| 2026-04-24 13:04 | 59.73033 | 31.07066 | 5348 ft | 262 kts | 205° |
| 2026-04-24 13:05 | 59.71613 | 31.05079 | 4770 ft | 243 kts | 240° |
| 2026-04-24 13:05 | 59.71026 | 31.02108 | 4236 ft | 226 kts | 269° |
| 2026-04-24 13:05 | 59.71210 | 30.99149 | 3799 ft | 212 kts | 295° |
| 2026-04-24 13:05 | 59.71988 | 30.96748 | 3524 ft | 210 kts | 317° |
| 2026-04-24 13:06 | 59.73157 | 30.95031 | 3322 ft | 209 kts | 330° |
| 2026-04-24 13:06 | 59.74407 | 30.93562 | 3049 ft | 209 kts | 330° |
| 2026-04-24 13:06 | 59.75667 | 30.92104 | 2762 ft | 210 kts | 329° |
| 2026-04-24 13:06 | 59.76895 | 30.90550 | 2531 ft | 207 kts | 324° |
| 2026-04-24 13:07 | 59.77967 | 30.88698 | 2527 ft | 205 kts | 316° |
| 2026-04-24 13:07 | 59.78766 | 30.86304 | 2517 ft | 212 kts | 296° |
| 2026-04-24 13:07 | 59.79209 | 30.83485 | 2537 ft | 217 kts | 291° |
| 2026-04-24 13:07 | 59.79645 | 30.80584 | 2418 ft | 222 kts | 291° |
| 2026-04-24 13:08 | 59.80037 | 30.77571 | 2075 ft | 228 kts | 279° |
| 2026-04-24 13:08 | 59.79719 | 30.74583 | 2046 ft | 224 kts | 249° |
| 2026-04-24 13:08 | 59.78981 | 30.71898 | 1957 ft | 217 kts | 246° |
| 2026-04-24 13:09 | 59.77580 | 30.66729 | 1937 ft | 212 kts | 248° |
| 2026-04-24 13:09 | 59.76882 | 30.64138 | 2044 ft | 213 kts | 248° |
| 2026-04-24 13:09 | 59.76174 | 30.61523 | 2033 ft | 215 kts | 247° |
| 2026-04-24 13:09 | 59.75459 | 30.58899 | 2025 ft | 216 kts | 247° |
| 2026-04-24 13:10 | 59.75028 | 30.56206 | 2014 ft | 199 kts | 271° |
| 2026-04-24 13:10 | 59.75207 | 30.53714 | 2058 ft | 172 kts | 294° |
| 2026-04-24 13:10 | 59.75604 | 30.51469 | 2019 ft | 172 kts | 290° |
| 2026-04-24 13:10 | 59.75901 | 30.49200 | 1997 ft | 165 kts | 290° |
| 2026-04-24 13:11 | 59.76219 | 30.47044 | 2007 ft | 162 kts | 292° |
| 2026-04-24 13:11 | 59.76561 | 30.44884 | 1861 ft | 167 kts | 292° |
| 2026-04-24 13:11 | 59.76883 | 30.42696 | 1644 ft | 161 kts | 291° |
| 2026-04-24 13:11 | 59.77186 | 30.40670 | 1431 ft | 147 kts | 292° |
| 2026-04-24 13:12 | 59.77462 | 30.38813 | 1197 ft | 133 kts | 292° |
| 2026-04-24 13:12 | 59.77711 | 30.37150 | 1084 ft | 121 kts | 292° |
| 2026-04-24 13:12 | 59.77941 | 30.35596 | 858 ft | 114 kts | 292° |
| 2026-04-24 13:12 | 59.78178 | 30.34061 | 730 ft | 119 kts | 291° |
| 2026-04-24 13:13 | 59.78418 | 30.32436 | 583 ft | 121 kts | 289° |
| 2026-04-24 13:13 | 59.78650 | 30.30821 | 417 ft | 125 kts | 291° |
| 2026-04-24 13:13 | 59.78890 | 30.29235 | 281 ft | 121 kts | 289° |
| 2026-04-24 13:13 | 59.79125 | 30.27635 | 113 ft | 118 kts | 288° |
| 2026-04-24 13:14 | 59.79338 | 30.26231 | 72 ft | 86 kts | 287° |
| 2026-04-24 13:14 | 59.79468 | 30.25368 | 67 ft | 54 kts | 287° |
| 2026-04-24 13:14 | 59.79569 | 30.24705 | 74 ft | 46 kts | 288° |
| 2026-04-24 13:14 | 59.79655 | 30.24132 | 68 ft | 41 kts | 284° |
| 2026-04-24 13:15 | 59.79732 | 30.23581 | 60 ft | 41 kts | 285° |
| 2026-04-24 13:15 | 59.79873 | 30.23127 | 66 ft | 37 kts | 307° |
| 2026-04-24 13:15 | 59.79988 | 30.23064 | 65 ft | 15 kts | 50° |
| 2026-04-24 13:15 | 59.79965 | 30.23212 | 65 ft | 12 kts | 117° |
| 2026-04-24 13:16 | 59.79942 | 30.23364 | 63 ft | 13 kts | 103° |
| 2026-04-24 13:16 | 59.79914 | 30.23568 | 65 ft | 17 kts | 106° |
| 2026-04-24 13:16 | 59.79880 | 30.23798 | 68 ft | 18 kts | 105° |
| 2026-04-24 13:16 | 59.79845 | 30.24040 | 71 ft | 19 kts | 105° |
| 2026-04-24 13:17 | 59.79806 | 30.24292 | 70 ft | 19 kts | 107° |
| 2026-04-24 13:17 | 59.79767 | 30.24555 | 66 ft | 20 kts | 105° |
| 2026-04-24 13:17 | 59.79727 | 30.24830 | 68 ft | 21 kts | 106° |
| 2026-04-24 13:17 | 59.79684 | 30.25117 | 65 ft | 22 kts | 107° |
| 2026-04-24 13:18 | 59.79639 | 30.25419 | 71 ft | 23 kts | 106° |
| 2026-04-24 13:18 | 59.79594 | 30.25734 | 68 ft | 24 kts | 105° |
| 2026-04-24 13:18 | 59.79615 | 30.26011 | 75 ft | 22 kts | 30° |
| 2026-04-24 13:18 | 59.79624 | 30.26273 | 69 ft | 20 kts | 107° |
| 2026-04-24 13:19 | 59.79646 | 30.26432 | 72 ft | 9 kts | 19° |
| 2026-04-24 13:19 | 59.79681 | 30.26516 | 72 ft | 9 kts | 96° |
| 2026-04-24 13:19 | 59.79674 | 30.26578 | 73 ft | 2 kts | 106° |
| 2026-04-24 13:19 | 59.79674 | 30.26579 | 73 ft | 0 kts | 106° |